Accueil
METAR-TAF:

METAR-TAF

Aéroports :

Greenville, Maine, États-Unis

latitude: 45-28N, longitude: 069-35W, altitude: 427 m

Observation

Le bulletin a été fait il y a 1 heure et 0 minutes, à 01:56 UTC
Vent 7 kt de nord-ouest avec des rafales jusqu'à 15 kt
Température 7°C
Humidité 81%
Pression 1012 hPa

METAR: KGNR 240156Z AUTO 31007G15KT 07/04 A2987 RMK AO1 SLP126 T00720039

Heure: 22:56 (02:56 UTC)


TAF: absent

Observations et prévisions météorologiques de plus de 4000 aéroports (messages METAR et TAF).

Les stations disponibles sont représentées par des disques jaunes et rouges sur la carte.

Passer la souris dessus pour voir le nom de la station.

Cliquer dessus pour voir les observations et prévisions météorologiques.

Pour changer de carte: cliquez sur les boutons verts avec une croix noire pour zoomer, sur le bouton vert avec un tiret pour effectuer un zoom arrière, ou sur les flèches vertes pour les cartes adjacentes.


METAR-TAF: